Lindale, Ohio
Current Conditions -  °F | °C
As of 7:53 AM on Tuesday 21 Oct 2014 (Local Time) from KLUK Reporting Station
Overcast Overcast  
Wind Chill: 50°   Ceiling: 6000
Heat Index: 50°   Visibility: 10mi
Dew Point: 45°   Wind: 8mph
Humidity: 83%   Direction: 320°NW
Pressure: 29.99"   Gusts: NA
Location:  39.0167°N, 84.2069°W
Report Text: KLUK 211153Z 32007KT 10SM OVC060 10/07 A2999 RMK AO2 SLP155 70001 T01000072 10133 20100 51015
Loading
Personal Weather Stations






























Interactive Weather Map
Tropical Storm Tracking
New forecast layout! Learn more

10-Day Weather Forecast

Advertisements
Track Severe Weather on mobile